Time;durP1;ratioP1;P1;durP2;ratioP2;P2;SDS_P1;SDS_P2;PMS_P1;PMS_P2;Temp;Humidity;BMP_temperature;BMP_pressure;BME280_temperature;BME280_humidity;BME280_pressure;Samples;Min_cycle;Max_cycle;Signal;HPM_P1;HPM_P2
2023/08/21 00:01:57;;;;;;;334.20;318.70;;;17.80;99.90;;;;;;5113193;28;20448;-59
2023/08/21 00:04:24;;;;;;;332.67;317.63;;;17.80;99.90;;;;;;5113332;28;20440;-59
2023/08/21 00:06:51;;;;;;;337.87;322.70;;;17.80;99.90;;;;;;5113442;28;20504;-59
2023/08/21 00:09:18;;;;;;;373.27;355.97;;;17.70;99.90;;;;;;5113289;28;20830;-59
2023/08/21 00:11:44;;;;;;;382.13;364.13;;;17.70;99.90;;;;;;5113172;28;20445;-59
2023/08/21 00:14:11;;;;;;;389.87;371.73;;;17.60;99.90;;;;;;5112520;28;20556;-59
2023/08/21 00:16:39;;;;;;;379.07;362.10;;;17.50;99.90;;;;;;5113092;28;20548;-59
2023/08/21 00:19:06;;;;;;;386.73;369.20;;;17.60;99.90;;;;;;5113021;28;20448;-59
2023/08/21 00:21:33;;;;;;;406.67;387.50;;;17.40;99.90;;;;;;5112911;28;20950;-59
2023/08/21 00:24:00;;;;;;;419.63;399.33;;;17.40;99.90;;;;;;5112676;28;20445;-59
2023/08/21 00:26:26;;;;;;;454.20;431.40;;;17.30;99.90;;;;;;5112883;28;20449;-59
2023/08/21 00:28:53;;;;;;;466.43;443.00;;;17.30;99.90;;;;;;5112695;28;20969;-59
2023/08/21 00:31:20;;;;;;;511.07;484.80;;;17.20;99.90;;;;;;5112821;28;20964;-59
2023/08/21 00:33:48;;;;;;;591.20;560.43;;;17.30;99.90;;;;;;5112411;28;20933;-59
2023/08/21 00:36:15;;;;;;;595.83;564.60;;;17.20;99.90;;;;;;5112653;28;20449;-59
2023/08/21 00:38:42;;;;;;;622.47;589.47;;;17.10;99.90;;;;;;5112564;28;20444;-59
2023/08/21 00:41:09;;;;;;;588.33;558.30;;;17.10;99.90;;;;;;5112610;28;20449;-59
2023/08/21 00:43:35;;;;;;;589.60;558.90;;;17.10;99.90;;;;;;5112062;28;20449;-59
2023/08/21 00:46:02;;;;;;;619.40;586.90;;;17.10;99.90;;;;;;5112684;28;20441;-59
2023/08/21 00:48:30;;;;;;;641.93;607.83;;;17.10;99.90;;;;;;5112834;28;20494;-59
2023/08/21 00:50:58;;;;;;;644.53;610.43;;;17.00;99.90;;;;;;5112393;28;20463;-59
2023/08/21 00:53:26;;;;;;;663.57;627.43;;;17.00;99.90;;;;;;5092130;28;20527;-59
2023/08/21 00:55:52;;;;;;;720.73;681.73;;;17.00;99.90;;;;;;5092048;28;20473;-59
2023/08/21 00:58:19;;;;;;;739.87;699.37;;;16.90;99.90;;;;;;5092374;28;20949;-59
2023/08/21 01:00:49;;;;;;;739.37;698.87;;;16.90;99.90;;;;;;5098532;28;20453;-59
2023/08/21 01:03:16;;;;;;;732.17;691.63;;;16.80;99.90;;;;;;5113113;28;20455;-59
2023/08/21 01:05:42;;;;;;;734.17;693.90;;;16.80;99.90;;;;;;5116748;28;20441;-59
2023/08/21 01:08:22;;;;;;;770.50;727.73;;;16.80;99.90;;;;;;5116824;28;20808;-59
2023/08/21 01:10:54;;;;;;;810.47;764.97;;;16.80;99.90;;;;;;5116887;28;20475;-59
2023/08/21 01:13:31;;;;;;;777.40;734.00;;;16.70;99.90;;;;;;5116694;28;20830;-59
2023/08/21 01:15:58;;;;;;;749.97;709.20;;;16.70;99.90;;;;;;5116600;28;20484;-59
2023/08/21 01:18:27;;;;;;;764.60;723.57;;;16.80;99.90;;;;;;5116525;28;20445;-59
2023/08/21 01:20:54;;;;;;;792.73;749.53;;;16.80;99.90;;;;;;5116133;28;20521;-59
2023/08/21 01:23:32;;;;;;;810.27;765.57;;;16.70;99.90;;;;;;5116686;28;20623;-59
2023/08/21 01:25:59;;;;;;;833.97;787.77;;;16.70;99.90;;;;;;5116386;28;20455;-59
2023/08/21 01:28:27;;;;;;;822.50;776.80;;;16.70;99.90;;;;;;5116264;28;20448;-59
2023/08/21 01:31:01;;;;;;;846.87;799.13;;;16.70;99.90;;;;;;5116113;28;20467;-59
2023/08/21 01:33:34;;;;;;;855.47;806.80;;;16.70;99.90;;;;;;5115629;28;20444;-59
2023/08/21 01:36:04;;;;;;;847.53;800.07;;;16.70;99.90;;;;;;5116096;28;20476;-59
2023/08/21 01:38:35;;;;;;;807.10;761.83;;;16.70;99.90;;;;;;5115908;28;20932;-59
2023/08/21 01:41:02;;;;;;;814.20;768.80;;;16.80;99.90;;;;;;5115986;28;20453;-59
2023/08/21 01:43:29;;;;;;;853.13;804.87;;;16.80;99.90;;;;;;5115873;28;20462;-59
2023/08/21 01:45:56;;;;;;;839.20;791.10;;;16.70;99.90;;;;;;5115976;28;20447;-59
2023/08/21 01:48:22;;;;;;;847.77;798.63;;;16.70;99.90;;;;;;5115556;28;20448;-59
2023/08/21 01:50:49;;;;;;;850.07;801.93;;;16.70;99.90;;;;;;5115627;28;20457;-59
2023/08/21 01:53:16;;;;;;;848.37;800.03;;;16.70;99.90;;;;;;5115739;28;20452;-59
2023/08/21 01:55:44;;;;;;;829.07;782.93;;;16.70;99.90;;;;;;5115769;28;20480;-59
2023/08/21 01:58:11;;;;;;;818.67;773.37;;;16.80;99.90;;;;;;5115766;28;20824;-59
2023/08/21 02:00:38;;;;;;;838.40;790.90;;;16.70;99.90;;;;;;5115652;27;20445;-59
2023/08/21 02:03:05;;;;;;;856.30;806.83;;;16.60;99.90;;;;;;5115376;28;20449;-59
2023/08/21 02:05:37;;;;;;;884.17;831.20;;;16.60;99.90;;;;;;5115791;28;20477;-59
2023/08/21 02:08:04;;;;;;;905.70;851.33;;;16.60;99.90;;;;;;5115722;28;20933;-59
2023/08/21 02:10:31;;;;;;;913.43;858.07;;;16.60;99.90;;;;;;5115294;28;20445;-59
2023/08/21 02:12:59;;;;;;;915.13;858.97;;;16.60;99.90;;;;;;5115389;28;20452;-59
2023/08/21 02:15:26;;;;;;;924.10;866.90;;;16.60;99.90;;;;;;5114719;28;20476;-59
2023/08/21 02:17:53;;;;;;;931.37;873.43;;;16.50;99.90;;;;;;5115341;28;20460;-59
2023/08/21 02:20:19;;;;;;;940.03;880.77;;;16.50;99.90;;;;;;5115182;28;20456;-59
2023/08/21 02:22:46;;;;;;;931.37;873.40;;;16.50;99.90;;;;;;5115252;28;20445;-59
2023/08/21 02:25:13;;;;;;;927.03;868.17;;;16.50;99.90;;;;;;5115108;28;20449;-59
2023/08/21 02:27:40;;;;;;;923.03;865.60;;;16.50;99.90;;;;;;5115085;28;20445;-59
2023/08/21 02:30:09;;;;;;;927.13;868.90;;;16.50;99.90;;;;;;5115297;28;20445;-59
2023/08/21 02:32:38;;;;;;;931.27;871.67;;;16.50;99.90;;;;;;5115265;28;20452;-59
2023/08/21 02:35:05;;;;;;;930.27;871.07;;;16.40;99.90;;;;;;5114952;28;20512;-59
2023/08/21 02:37:32;;;;;;;916.10;858.60;;;16.40;99.90;;;;;;5115085;28;20793;-59
2023/08/21 02:40:00;;;;;;;916.57;858.17;;;16.50;99.90;;;;;;5114899;28;20449;-59
2023/08/21 02:42:27;;;;;;;909.77;852.50;;;16.50;99.90;;;;;;5114556;28;20541;-59
2023/08/21 02:44:53;;;;;;;904.37;847.93;;;16.50;99.90;;;;;;5114589;28;20445;-60
2023/08/21 02:47:22;;;;;;;892.30;837.47;;;16.60;99.90;;;;;;5114798;28;20951;-59
2023/08/21 02:49:48;;;;;;;881.13;828.03;;;16.60;99.90;;;;;;5114662;28;20445;-59
2023/08/21 02:52:15;;;;;;;865.70;814.27;;;16.60;99.90;;;;;;5114603;28;20479;-59
2023/08/21 02:54:42;;;;;;;846.50;796.33;;;16.70;99.90;;;;;;5114172;28;20530;-59
2023/08/21 02:57:09;;;;;;;825.37;777.50;;;16.70;99.90;;;;;;5114571;28;20484;-59
2023/08/21 02:59:35;;;;;;;818.13;770.73;;;16.70;99.90;;;;;;5114480;28;20445;-59
2023/08/21 03:02:02;;;;;;;807.93;761.13;;;16.70;99.90;;;;;;5114711;28;20449;-60
2023/08/21 03:04:30;;;;;;;796.17;751.23;;;16.70;99.90;;;;;;5114111;28;20449;-59
2023/08/21 03:06:57;;;;;;;791.03;746.33;;;16.70;99.90;;;;;;5114443;28;20460;-60
2023/08/21 03:09:24;;;;;;;816.63;769.60;;;16.60;99.90;;;;;;5114162;28;20459;-59
2023/08/21 03:11:51;;;;;;;824.63;777.27;;;16.60;99.90;;;;;;5114531;28;20449;-59
2023/08/21 03:14:17;;;;;;;815.20;768.10;;;16.60;99.90;;;;;;5113818;28;20449;-59
2023/08/21 03:16:44;;;;;;;816.63;768.63;;;16.60;99.90;;;;;;5114035;28;20479;-59
2023/08/21 03:19:11;;;;;;;801.07;754.37;;;16.70;99.90;;;;;;5114181;28;20451;-59
2023/08/21 03:21:39;;;;;;;778.67;733.90;;;16.70;99.90;;;;;;5114173;28;20536;-59
2023/08/21 03:24:07;;;;;;;776.37;731.87;;;16.70;99.90;;;;;;5113777;28;20441;-59
2023/08/21 03:26:34;;;;;;;790.37;744.90;;;16.70;99.90;;;;;;5092910;28;20444;-59
2023/08/21 03:29:00;;;;;;;811.07;763.53;;;16.70;99.90;;;;;;5097333;28;20822;-59
2023/08/21 03:31:28;;;;;;;807.80;761.03;;;16.70;99.90;;;;;;5113698;28;20445;-59
2023/08/21 03:33:54;;;;;;;811.20;764.97;;;16.70;99.90;;;;;;5113755;28;20472;-59
2023/08/21 03:36:23;;;;;;;805.87;758.97;;;16.70;99.90;;;;;;5113462;28;20465;-59
2023/08/21 03:38:51;;;;;;;801.80;755.70;;;16.70;99.90;;;;;;5113868;28;20453;-59
2023/08/21 03:41:18;;;;;;;812.00;763.90;;;16.60;99.90;;;;;;5113866;28;20449;-59
2023/08/21 03:43:44;;;;;;;805.60;758.40;;;16.70;99.90;;;;;;5113663;28;20445;-59
2023/08/21 03:46:11;;;;;;;794.70;748.73;;;16.60;99.90;;;;;;5096847;28;20442;-59
2023/08/21 03:48:38;;;;;;;786.90;741.40;;;16.60;99.90;;;;;;5110135;28;20456;-59
2023/08/21 03:51:05;;;;;;;774.27;729.17;;;16.70;99.90;;;;;;5113237;28;20460;-59
2023/08/21 03:53:31;;;;;;;825.00;778.10;;;16.70;99.90;;;;;;5113215;28;20444;-59
2023/08/21 03:56:00;;;;;;;829.80;781.63;;;16.70;99.90;;;;;;5111865;28;20475;-59
2023/08/21 03:58:26;;;;;;;811.63;764.67;;;16.70;99.90;;;;;;5113261;28;20449;-59
2023/08/21 04:00:53;;;;;;;828.63;780.23;;;16.60;99.90;;;;;;5113311;28;20457;-59
2023/08/21 04:03:20;;;;;;;827.87;778.77;;;16.60;99.90;;;;;;5113617;28;20445;-59
2023/08/21 04:05:47;;;;;;;876.57;823.50;;;16.60;99.90;;;;;;5112900;28;20441;-59
2023/08/21 04:08:14;;;;;;;887.07;832.47;;;16.60;99.90;;;;;;5113369;28;20453;-59
2023/08/21 04:10:41;;;;;;;880.63;828.57;;;16.50;99.90;;;;;;5113099;28;20444;-59
2023/08/21 04:13:10;;;;;;;890.53;838.00;;;16.60;99.90;;;;;;5112724;28;20450;-59
2023/08/21 04:15:36;;;;;;;894.60;840.43;;;16.60;99.90;;;;;;5112613;28;20476;-59
2023/08/21 04:18:04;;;;;;;907.40;851.60;;;16.50;99.90;;;;;;5112841;28;20455;-59
2023/08/21 04:20:31;;;;;;;901.10;845.20;;;16.50;99.90;;;;;;5112436;28;20455;-61
2023/08/21 04:22:58;;;;;;;906.87;851.07;;;16.50;99.90;;;;;;5112329;28;20449;-61
2023/08/21 04:25:25;;;;;;;903.33;845.73;;;16.30;99.90;;;;;;5112998;28;20793;-60
2023/08/21 04:27:51;;;;;;;923.97;864.90;;;16.30;99.90;;;;;;5111892;28;20445;-60
2023/08/21 04:30:20;;;;;;;921.93;862.83;;;16.30;99.90;;;;;;5111386;28;20449;-61
2023/08/21 04:32:47;;;;;;;916.33;854.93;;;16.20;99.90;;;;;;5111404;28;20453;-61
2023/08/21 04:35:14;;;;;;;911.03;847.57;;;16.20;99.90;;;;;;5112808;28;20440;-61
2023/08/21 04:37:47;;;;;;;923.30;857.83;;;16.20;99.90;;;;;;5112546;28;20452;-61
2023/08/21 04:40:15;;;;;;;931.80;866.30;;;16.20;99.90;;;;;;5112652;28;20541;-61
2023/08/21 04:42:41;;;;;;;923.63;856.37;;;16.20;99.90;;;;;;5112875;28;20445;-61
2023/08/21 04:45:09;;;;;;;922.23;855.77;;;16.20;99.90;;;;;;5115629;28;20484;-61
2023/08/21 04:47:37;;;;;;;915.17;849.30;;;16.20;99.90;;;;;;5112611;28;20527;-61
2023/08/21 04:50:05;;;;;;;930.30;864.23;;;16.10;99.90;;;;;;5112473;28;20940;-61
2023/08/21 04:52:32;;;;;;;921.87;855.73;;;16.20;99.90;;;;;;5112379;28;20452;-60
2023/08/21 04:54:58;;;;;;;926.30;859.47;;;16.20;99.90;;;;;;5112215;28;20449;-61
2023/08/21 04:57:27;;;;;;;918.90;852.33;;;16.10;99.90;;;;;;5112388;28;20473;-60
2023/08/21 04:59:54;;;;;;;919.20;853.63;;;16.20;99.90;;;;;;5112006;28;20463;-60
2023/08/21 05:02:21;;;;;;;919.30;855.30;;;16.20;99.90;;;;;;5112418;28;20536;-60
2023/08/21 05:04:49;;;;;;;915.47;852.40;;;16.20;99.90;;;;;;5112478;28;20823;-60
2023/08/21 05:07:16;;;;;;;921.13;856.87;;;16.20;99.90;;;;;;5112408;28;20449;-60
2023/08/21 05:09:42;;;;;;;910.53;848.33;;;16.30;99.90;;;;;;5112509;28;20449;-60
2023/08/21 05:12:09;;;;;;;896.90;836.00;;;16.40;99.90;;;;;;5112243;28;20451;-61
2023/08/21 05:14:36;;;;;;;893.77;834.07;;;16.40;99.90;;;;;;5112046;28;21193;-61
2023/08/21 05:17:04;;;;;;;888.47;830.07;;;16.40;99.90;;;;;;5111164;28;20477;-61
2023/08/21 05:19:30;;;;;;;882.60;825.90;;;16.50;99.90;;;;;;5112470;28;20456;-60
2023/08/21 05:21:59;;;;;;;880.07;823.70;;;16.50;99.90;;;;;;5111288;28;20450;-60
2023/08/21 05:24:25;;;;;;;874.60;819.10;;;16.60;99.90;;;;;;5111740;28;20956;-60
2023/08/21 05:26:52;;;;;;;831.53;778.13;;;16.70;99.90;;;;;;5111863;28;20815;-61
2023/08/21 05:29:19;;;;;;;744.60;696.77;;;16.80;99.90;;;;;;5112189;28;20461;-60
2023/08/21 05:31:46;;;;;;;587.23;553.33;;;17.00;99.90;;;;;;5111933;28;20445;-60
2023/08/21 05:34:12;;;;;;;499.53;472.40;;;17.30;99.90;;;;;;5111820;28;20449;-61
2023/08/21 05:36:40;;;;;;;353.93;337.00;;;17.60;99.90;;;;;;5111958;28;20473;-60
2023/08/21 05:39:09;;;;;;;181.20;172.60;;;17.90;99.90;;;;;;5111989;28;20484;-61
2023/08/21 05:41:36;;;;;;;107.10;102.90;;;18.30;99.90;;;;;;5112037;28;20452;-61
2023/08/21 05:44:03;;;;;;;64.10;60.83;;;18.50;99.90;;;;;;5112102;28;20573;-61
2023/08/21 05:46:30;;;;;;;22.93;17.63;;;18.80;99.90;;;;;;5112417;28;20933;-61
2023/08/21 05:48:57;;;;;;;11.23;10.20;;;19.20;99.90;;;;;;5112079;28;20445;-61
2023/08/21 05:51:24;;;;;;;16.93;10.23;;;19.40;99.90;;;;;;5115546;28;20457;-61
2023/08/21 05:53:51;;;;;;;10.23;8.07;;;19.40;99.90;;;;;;5115309;28;20441;-61
2023/08/21 05:56:19;;;;;;;14.33;7.03;;;19.60;99.90;;;;;;5115073;28;20778;-61
2023/08/21 05:58:45;;;;;;;11.50;6.60;;;19.80;99.90;;;;;;5115058;28;20452;-61
2023/08/21 06:01:12;;;;;;;8.03;4.90;;;20.00;99.90;;;;;;5115172;28;20451;-61
2023/08/21 06:03:39;;;;;;;9.10;5.67;;;20.00;99.90;;;;;;5114647;28;20501;-61
2023/08/21 06:06:06;;;;;;;11.03;5.20;;;20.00;99.90;;;;;;5115093;28;20448;-61
2023/08/21 06:08:33;;;;;;;12.87;5.93;;;20.00;99.90;;;;;;5114643;28;20471;-61
2023/08/21 06:11:00;;;;;;;11.97;5.17;;;20.10;99.90;;;;;;5115188;28;20445;-61
2023/08/21 06:13:28;;;;;;;10.93;5.57;;;20.00;99.90;;;;;;5114983;28;20442;-61
2023/08/21 06:15:55;;;;;;;32.23;6.53;;;19.90;99.90;;;;;;5115113;28;20469;-61
2023/08/21 06:18:22;;;;;;;12.73;8.90;;;19.90;99.90;;;;;;5115230;28;20805;-61
2023/08/21 06:20:53;;;;;;;12.93;7.07;;;20.00;99.90;;;;;;5114735;28;20448;-61
2023/08/21 06:23:20;;;;;;;11.10;6.83;;;20.00;99.90;;;;;;5114421;28;20452;-61
2023/08/21 06:25:48;;;;;;;10.90;9.90;;;20.20;99.90;;;;;;5115117;28;20840;-61
2023/08/21 06:28:15;;;;;;;14.07;12.67;;;20.30;99.90;;;;;;5114937;28;20455;-61
2023/08/21 06:30:43;;;;;;;12.30;10.20;;;20.30;99.90;;;;;;5114769;28;20448;-61
2023/08/21 06:33:10;;;;;;;11.83;8.87;;;20.40;99.90;;;;;;5114571;28;20449;-61
2023/08/21 06:35:37;;;;;;;14.57;11.30;;;20.40;99.90;;;;;;5114667;28;20452;-61
2023/08/21 06:38:04;;;;;;;11.33;6.97;;;20.40;99.90;;;;;;5114641;28;20445;-61
2023/08/21 06:40:31;;;;;;;12.57;5.80;;;20.40;98.70;;;;;;5114714;28;20450;-61
2023/08/21 06:42:58;;;;;;;13.57;9.40;;;20.40;98.70;;;;;;5114452;28;20551;-61
2023/08/21 06:45:28;;;;;;;12.80;9.00;;;20.50;99.90;;;;;;5114567;28;20467;-61
2023/08/21 06:47:56;;;;;;;16.03;7.23;;;20.60;99.90;;;;;;5114896;28;20441;-61
2023/08/21 06:50:23;;;;;;;16.23;8.60;;;20.60;99.40;;;;;;5113999;28;20534;-61
2023/08/21 06:52:50;;;;;;;12.10;7.30;;;20.70;99.90;;;;;;5114438;28;20449;-61
2023/08/21 06:55:16;;;;;;;12.60;7.57;;;20.70;99.10;;;;;;5114193;28;20454;-61
2023/08/21 06:57:43;;;;;;;11.37;7.10;;;20.70;99.90;;;;;;5114393;28;20866;-61
2023/08/21 07:00:11;;;;;;;14.50;7.90;;;20.80;99.90;;;;;;5114267;28;20445;-61
2023/08/21 07:02:38;;;;;;;13.83;8.23;;;20.80;98.80;;;;;;5114197;28;20807;-61
2023/08/21 07:05:07;;;;;;;20.93;7.70;;;20.90;98.90;;;;;;5113983;28;20480;-61
2023/08/21 07:07:34;;;;;;;18.43;8.87;;;21.00;98.90;;;;;;5114091;28;20441;-61
2023/08/21 07:10:03;;;;;;;18.83;9.00;;;21.10;99.80;;;;;;5110402;28;20932;-61
2023/08/21 07:12:29;;;;;;;18.30;7.83;;;21.20;99.30;;;;;;5113295;28;20484;-61
2023/08/21 07:14:56;;;;;;;24.50;9.87;;;21.20;99.00;;;;;;5113444;28;20448;-61
2023/08/21 07:17:23;;;;;;;13.77;7.43;;;21.40;99.00;;;;;;5112790;28;20483;-61
2023/08/21 07:19:52;;;;;;;18.70;8.90;;;21.40;97.70;;;;;;5113221;28;20456;-61
2023/08/21 07:22:20;;;;;;;17.70;7.57;;;21.50;95.80;;;;;;5113219;28;20449;-62
2023/08/21 07:24:47;;;;;;;15.00;6.80;;;21.40;95.70;;;;;;5113288;28;20970;-61
2023/08/21 07:27:14;;;;;;;23.93;5.90;;;21.40;95.70;;;;;;5113027;28;20933;-60
2023/08/21 07:29:41;;;;;;;18.57;6.60;;;21.40;95.70;;;;;;5112919;28;20445;-60
2023/08/21 07:32:08;;;;;;;10.57;5.47;;;21.50;95.70;;;;;;5112341;28;20452;-60
2023/08/21 07:34:35;;;;;;;12.07;6.10;;;21.50;97.20;;;;;;5111612;28;20451;-60
2023/08/21 07:37:01;;;;;;;11.13;5.83;;;21.60;97.60;;;;;;5112940;28;20242;-60
2023/08/21 07:39:29;;;;;;;8.57;4.33;;;21.70;95.80;;;;;;5113020;28;20453;-60
2023/08/21 07:41:56;;;;;;;9.00;4.23;;;21.60;95.80;;;;;;5112700;28;20471;-60
2023/08/21 07:44:23;;;;;;;19.53;4.60;;;21.60;95.70;;;;;;5112715;28;20452;-60
2023/08/21 07:46:50;;;;;;;14.03;7.20;;;21.60;95.80;;;;;;5112840;28;20444;-60
2023/08/21 07:49:17;;;;;;;14.50;4.67;;;21.70;95.80;;;;;;5113455;28;20952;-59
2023/08/21 07:51:43;;;;;;;11.50;4.90;;;21.80;95.90;;;;;;5113481;28;20487;-60
2023/08/21 07:54:10;;;;;;;9.87;4.63;;;21.90;95.50;;;;;;5113397;28;20452;-60
2023/08/21 07:56:40;;;;;;;9.40;4.23;;;22.00;95.90;;;;;;5113931;28;20473;-60
2023/08/21 07:59:08;;;;;;;12.37;4.97;;;22.30;93.70;;;;;;5113344;28;20537;-60
2023/08/21 08:01:36;;;;;;;12.60;5.90;;;22.40;95.80;;;;;;5113554;28;20995;-60
2023/08/21 08:04:02;;;;;;;16.40;4.73;;;22.70;93.20;;;;;;5113373;28;20449;-60
2023/08/21 08:06:29;;;;;;;8.30;4.83;;;22.80;92.80;;;;;;5113379;28;20515;-60
2023/08/21 08:08:56;;;;;;;13.97;6.03;;;23.00;93.30;;;;;;5113343;28;20817;-59
2023/08/21 08:11:23;;;;;;;8.20;4.37;;;23.20;89.00;;;;;;5113295;28;20468;-60
2023/08/21 08:13:51;;;;;;;8.77;4.33;;;23.50;89.20;;;;;;5112475;28;20453;-60
2023/08/21 08:16:18;;;;;;;13.03;5.20;;;23.60;85.40;;;;;;5113010;28;20456;-60
2023/08/21 08:18:45;;;;;;;10.50;5.10;;;23.60;86.00;;;;;;5113156;28;20451;-60
2023/08/21 08:21:11;;;;;;;9.37;5.00;;;23.80;81.70;;;;;;5113119;28;20940;-60
2023/08/21 08:23:38;;;;;;;12.27;4.83;;;24.00;73.70;;;;;;5113123;28;20444;-60
2023/08/21 08:26:05;;;;;;;13.43;4.50;;;24.20;73.90;;;;;;5113181;28;20456;-60
2023/08/21 08:28:32;;;;;;;12.67;4.93;;;24.30;74.90;;;;;;5113152;28;20547;-60
2023/08/21 08:31:00;;;;;;;9.93;4.90;;;24.20;82.00;;;;;;5112849;28;20461;-60
2023/08/21 08:33:27;;;;;;;11.30;5.93;;;24.20;82.00;;;;;;5112884;28;20797;-60
2023/08/21 08:35:54;;;;;;;16.97;5.50;;;24.60;82.40;;;;;;5112955;28;20815;-60
2023/08/21 08:38:21;;;;;;;9.43;4.90;;;24.80;77.10;;;;;;5112660;28;21004;-60
2023/08/21 08:40:48;;;;;;;11.23;5.63;;;24.90;74.60;;;;;;5112634;28;20548;-60
2023/08/21 08:43:15;;;;;;;14.87;5.40;;;25.10;64.60;;;;;;5112853;28;20809;-60
2023/08/21 08:45:42;;;;;;;16.60;5.67;;;25.50;58.20;;;;;;5112853;28;20448;-60
2023/08/21 08:48:11;;;;;;;16.60;4.80;;;25.40;58.20;;;;;;5112876;28;20441;-60
2023/08/21 08:50:39;;;;;;;9.67;5.50;;;25.80;64.30;;;;;;5112585;28;20456;-60
2023/08/21 08:53:08;;;;;;;8.17;4.23;;;25.80;58.40;;;;;;5112528;28;20767;-60
2023/08/21 08:55:35;;;;;;;10.70;6.57;;;25.80;58.50;;;;;;5111527;28;20445;-62
2023/08/21 08:58:01;;;;;;;15.20;5.87;;;25.90;58.50;;;;;;5112283;28;20480;-64
2023/08/21 09:00:28;;;;;;;11.30;6.47;;;26.20;58.60;;;;;;5113406;28;20442;-61
2023/08/21 09:02:56;;;;;;;9.10;5.07;;;26.20;51.90;;;;;;5113486;28;20798;-61
2023/08/21 09:05:24;;;;;;;19.40;5.30;;;26.30;49.90;;;;;;5112721;28;20447;-61
2023/08/21 09:08:04;;;;;;;12.47;5.97;;;26.30;50.20;;;;;;5112628;28;20452;-61
2023/08/21 09:10:31;;;;;;;12.60;6.20;;;26.40;50.00;;;;;;5113476;28;20843;-61
2023/08/21 09:13:01;;;;;;;10.87;5.97;;;26.60;48.90;;;;;;5113331;28;20444;-61
2023/08/21 09:15:29;;;;;;;9.50;5.90;;;26.70;47.00;;;;;;5112884;28;20456;-61
2023/08/21 09:17:56;;;;;;;11.20;5.40;;;26.70;47.90;;;;;;5112575;28;20507;-61
2023/08/21 09:20:24;;;;;;;17.87;6.50;;;26.70;45.20;;;;;;5112244;28;20500;-61
2023/08/21 09:22:55;;;;;;;13.03;5.67;;;27.00;48.20;;;;;;5112839;28;20453;-61
2023/08/21 09:25:25;;;;;;;13.20;6.27;;;27.70;41.90;;;;;;5114513;28;20452;-61
2023/08/21 09:27:53;;;;;;;12.80;6.50;;;27.90;42.00;;;;;;5116257;28;20527;-61
2023/08/21 09:30:20;;;;;;;13.50;5.97;;;28.10;42.20;;;;;;5116591;28;20441;-61
2023/08/21 09:32:54;;;;;;;11.90;6.37;;;28.10;32.90;;;;;;5117472;28;20445;-62
2023/08/21 09:35:21;;;;;;;15.90;6.43;;;28.20;34.90;;;;;;5116245;28;20445;-62
2023/08/21 09:37:52;;;;;;;15.40;5.40;;;27.60;32.50;;;;;;5116013;28;20484;-61
2023/08/21 09:40:20;;;;;;;13.33;7.17;;;27.80;32.70;;;;;;5116816;28;20448;-61
2023/08/21 09:42:51;;;;;;;12.67;7.07;;;27.90;32.80;;;;;;5117092;28;20812;-64
2023/08/21 09:45:21;;;;;;;9.90;6.00;;;28.30;33.50;;;;;;5116088;28;20452;-64
2023/08/21 09:47:49;;;;;;;12.20;6.00;;;28.40;29.30;;;;;;5116343;28;20449;-64
2023/08/21 09:50:16;;;;;;;10.40;5.50;;;28.90;33.50;;;;;;5116469;28;20535;-64
2023/08/21 09:52:44;;;;;;;11.93;6.63;;;29.20;25.60;;;;;;5116601;28;20448;-64
2023/08/21 09:55:14;;;;;;;10.23;6.33;;;29.40;25.70;;;;;;5115792;28;20936;-64
2023/08/21 09:57:41;;;;;;;11.47;5.60;;;29.40;24.60;;;;;;5115635;28;20975;-64
2023/08/21 10:00:15;;;;;;;18.50;5.07;;;29.90;18.50;;;;;;5115836;28;20448;-64
2023/08/21 10:02:45;;;;;;;8.80;4.80;;;29.60;18.30;;;;;;5116409;28;20455;-64
2023/08/21 10:05:14;;;;;;;11.60;5.37;;;29.30;21.90;;;;;;5115311;28;20444;-64
2023/08/21 10:07:41;;;;;;;12.17;5.73;;;29.30;18.10;;;;;;5115370;28;20528;-63
2023/08/21 10:10:09;;;;;;;13.90;5.50;;;29.10;18.00;;;;;;5115675;28;20445;-63
2023/08/21 10:12:37;;;;;;;11.20;5.30;;;29.50;18.30;;;;;;5115914;28;20449;-64
2023/08/21 10:15:05;;;;;;;14.10;6.10;;;29.20;18.10;;;;;;5115344;28;20445;-64
2023/08/21 10:17:33;;;;;;;12.80;5.00;;;29.10;24.20;;;;;;5115525;28;20472;-63
2023/08/21 10:20:04;;;;;;;10.37;4.50;;;29.10;18.10;;;;;;5115541;28;20426;-64
2023/08/21 10:22:40;;;;;;;11.00;5.03;;;29.20;18.20;;;;;;5116421;28;20436;-64
2023/08/21 10:25:15;;;;;;;18.40;5.63;;;29.20;18.10;;;;;;5114954;28;20456;-64
2023/08/21 10:27:44;;;;;;;11.13;4.60;;;29.30;18.10;;;;;;5115424;28;20529;-64
2023/08/21 10:30:16;;;;;;;10.27;4.63;;;30.10;16.80;;;;;;5115767;28;20975;-64
2023/08/21 10:32:46;;;;;;;7.63;3.90;;;31.10;15.30;;;;;;5116111;28;20481;-63
2023/08/21 10:35:16;;;;;;;9.90;4.93;;;30.80;7.60;;;;;;5114837;28;20494;-63
2023/08/21 10:38:08;;;;;;;8.80;4.57;;;30.50;11.20;;;;;;5114922;28;21047;-64
2023/08/21 10:40:36;;;;;;;15.03;5.27;;;31.10;7.50;;;;;;5115598;28;20623;-64
2023/08/21 10:43:04;;;;;;;34.93;6.53;;;31.00;7.40;;;;;;5115330;28;20449;-64
2023/08/21 10:45:31;;;;;;;12.13;4.63;;;31.00;6.80;;;;;;5115029;28;20449;-64
2023/08/21 10:47:59;;;;;;;9.90;4.67;;;31.10;3.60;;;;;;5114631;28;20415;-63
2023/08/21 10:50:26;;;;;;;9.30;4.20;;;31.40;3.80;;;;;;5115728;28;20461;-65
2023/08/21 10:52:54;;;;;;;13.20;5.20;;;31.90;4.00;;;;;;5115537;28;20453;-64
2023/08/21 10:55:22;;;;;;;11.37;5.70;;;32.00;1.00;;;;;;5114734;28;20445;-65
2023/08/21 10:57:49;;;;;;;15.13;5.00;;;32.30;1.00;;;;;;5113474;28;20483;-67
2023/08/21 11:00:20;;;;;;;15.43;4.53;;;32.60;1.00;;;;;;5114956;28;20207;-66
2023/08/21 11:02:49;;;;;;;11.40;5.03;;;32.30;1.00;;;;;;5115114;28;20944;-66
2023/08/21 11:05:17;;;;;;;9.90;4.93;;;33.10;1.00;;;;;;5114740;28;20448;-60
2023/08/21 11:07:45;;;;;;;9.07;3.90;;;31.50;1.00;;;;;;5114639;28;20471;-60
2023/08/21 11:10:14;;;;;;;15.30;5.27;;;31.30;1.00;;;;;;5114701;28;20449;-60
2023/08/21 11:12:50;;;;;;;9.13;4.93;;;30.90;1.00;;;;;;5114313;28;20911;-60
2023/08/21 11:15:19;;;;;;;11.17;4.83;;;31.90;1.00;;;;;;5114358;28;20453;-60
2023/08/21 11:17:52;;;;;;;13.50;4.93;;;32.30;1.00;;;;;;5114428;28;20973;-60
2023/08/21 11:20:20;;;;;;;11.07;4.43;;;32.50;1.00;;;;;;5114555;28;20420;-60
2023/08/21 11:22:46;;;;;;;11.10;4.47;;;32.70;1.00;;;;;;5114171;28;20427;-61
2023/08/21 11:25:15;;;;;;;10.17;5.30;;;31.90;1.00;;;;;;5113990;28;20483;-60
2023/08/21 11:27:42;;;;;;;17.13;4.60;;;31.40;1.00;;;;;;5114000;28;20420;-60
2023/08/21 11:30:12;;;;;;;12.37;4.50;;;31.80;1.00;;;;;;5114230;28;20941;-60
2023/08/21 11:32:40;;;;;;;11.83;3.50;;;32.30;1.00;;;;;;5114159;28;20453;-60
2023/08/21 11:35:08;;;;;;;9.00;3.80;;;32.10;1.00;;;;;;5113821;28;20445;-60
2023/08/21 11:37:34;;;;;;;10.10;4.10;;;31.70;1.00;;;;;;5113891;28;20556;-60
2023/08/21 11:40:09;;;;;;;11.33;3.87;;;31.90;1.00;;;;;;5113747;28;20445;-61
2023/08/21 11:42:36;;;;;;;8.60;3.40;;;32.10;1.00;;;;;;5114029;28;20812;-61
2023/08/21 11:45:03;;;;;;;11.67;4.37;;;31.30;1.00;;;;;;5113832;28;20527;-60
2023/08/21 11:47:33;;;;;;;9.17;4.07;;;31.70;1.00;;;;;;5113002;28;20456;-61
2023/08/21 11:50:05;;;;;;;11.27;4.10;;;32.10;1.00;;;;;;5113720;28;20444;-60
2023/08/21 11:52:32;;;;;;;9.90;4.20;;;31.80;1.00;;;;;;5113493;28;20441;-60
2023/08/21 11:54:59;;;;;;;9.73;3.80;;;31.60;1.00;;;;;;5113424;28;20444;-60
2023/08/21 11:57:27;;;;;;;15.20;4.10;;;31.50;1.00;;;;;;5113589;28;20782;-60
2023/08/21 11:59:55;;;;;;;10.53;4.17;;;31.70;1.00;;;;;;5113401;28;20431;-60
2023/08/21 12:02:24;;;;;;;8.87;4.30;;;31.60;1.00;;;;;;5113372;28;20893;-60
2023/08/21 12:04:54;;;;;;;13.00;4.73;;;32.10;1.00;;;;;;5113686;28;20453;-60
2023/08/21 12:07:22;;;;;;;10.13;4.03;;;32.50;1.00;;;;;;5113298;28;20787;-60
2023/08/21 12:09:50;;;;;;;9.33;3.87;;;32.70;1.00;;;;;;5113534;28;20816;-60
2023/08/21 12:12:17;;;;;;;11.50;4.07;;;32.20;1.00;;;;;;5113299;28;20471;-60
2023/08/21 12:14:44;;;;;;;12.10;4.68;;;31.60;1.00;;;;;;5112255;28;20435;-62
2023/08/21 12:17:11;;;;;;;22.03;4.47;;;31.90;1.00;;;;;;5112562;28;20187;-62
2023/08/21 12:19:37;;;;;;;10.50;4.50;;;32.40;1.00;;;;;;5112830;28;20998;-62
2023/08/21 12:22:05;;;;;;;10.03;4.50;;;32.50;1.00;;;;;;5114056;28;20444;-62
2023/08/21 12:24:33;;;;;;;10.27;3.90;;;33.20;1.00;;;;;;5113111;28;20449;-62
2023/08/21 12:27:00;;;;;;;10.63;3.43;;;34.10;1.00;;;;;;5113112;28;20967;-63
2023/08/21 12:29:26;;;;;;;13.83;7.10;;;33.30;1.00;;;;;;5113075;28;20419;-62